sensor_id;sensor_type;location;lat;lon;timestamp;P1;durP1;ratioP1;P2;durP2;ratioP2
28009;SDS011;15334;49.494;8.410;2023-03-16T00:01:09;18.27;;;9.40;;
28009;SDS011;15334;49.494;8.410;2023-03-16T00:04:01;25.13;;;9.85;;
28009;SDS011;15334;49.494;8.410;2023-03-16T00:06:45;18.35;;;8.35;;
28009;SDS011;15334;49.494;8.410;2023-03-16T00:09:52;18.08;;;9.63;;
28009;SDS011;15334;49.494;8.410;2023-03-16T00:12:38;19.80;;;9.10;;
28009;SDS011;15334;49.494;8.410;2023-03-16T00:15:09;20.58;;;9.38;;
28009;SDS011;15334;49.494;8.410;2023-03-16T00:17:38;20.73;;;9.27;;
28009;SDS011;15334;49.494;8.410;2023-03-16T00:20:09;19.20;;;9.85;;
28009;SDS011;15334;49.494;8.410;2023-03-16T00:22:41;16.50;;;9.25;;
28009;SDS011;15334;49.494;8.410;2023-03-16T00:25:10;18.65;;;9.68;;
28009;SDS011;15334;49.494;8.410;2023-03-16T00:27:40;16.77;;;8.65;;
28009;SDS011;15334;49.494;8.410;2023-03-16T00:30:13;18.67;;;10.30;;
28009;SDS011;15334;49.494;8.410;2023-03-16T00:32:42;22.85;;;10.85;;
28009;SDS011;15334;49.494;8.410;2023-03-16T00:35:11;25.25;;;11.35;;
28009;SDS011;15334;49.494;8.410;2023-03-16T00:37:39;21.17;;;11.18;;
28009;SDS011;15334;49.494;8.410;2023-03-16T00:40:14;23.35;;;10.50;;
28009;SDS011;15334;49.494;8.410;2023-03-16T00:42:45;25.23;;;12.07;;
28009;SDS011;15334;49.494;8.410;2023-03-16T00:45:36;24.23;;;11.85;;
28009;SDS011;15334;49.494;8.410;2023-03-16T00:48:40;20.05;;;11.13;;
28009;SDS011;15334;49.494;8.410;2023-03-16T00:52:01;27.88;;;10.43;;
28009;SDS011;15334;49.494;8.410;2023-03-16T00:55:09;21.60;;;11.55;;
28009;SDS011;15334;49.494;8.410;2023-03-16T00:58:01;21.58;;;11.05;;
28009;SDS011;15334;49.494;8.410;2023-03-16T01:00:54;24.70;;;11.63;;
28009;SDS011;15334;49.494;8.410;2023-03-16T01:04:00;21.73;;;10.15;;
28009;SDS011;15334;49.494;8.410;2023-03-16T01:06:43;23.83;;;11.73;;
28009;SDS011;15334;49.494;8.410;2023-03-16T01:09:43;22.33;;;11.82;;
28009;SDS011;15334;49.494;8.410;2023-03-16T01:12:40;24.38;;;11.32;;
28009;SDS011;15334;49.494;8.410;2023-03-16T01:18:46;21.80;;;10.38;;
28009;SDS011;15334;49.494;8.410;2023-03-16T01:21:51;24.92;;;12.35;;
28009;SDS011;15334;49.494;8.410;2023-03-16T01:24:49;24.20;;;11.82;;
28009;SDS011;15334;49.494;8.410;2023-03-16T01:31:14;20.58;;;11.65;;
28009;SDS011;15334;49.494;8.410;2023-03-16T01:34:37;21.20;;;10.25;;
28009;SDS011;15334;49.494;8.410;2023-03-16T01:37:52;23.15;;;11.05;;
28009;SDS011;15334;49.494;8.410;2023-03-16T01:41:00;23.08;;;10.65;;
28009;SDS011;15334;49.494;8.410;2023-03-16T01:43:43;22.92;;;11.10;;
28009;SDS011;15334;49.494;8.410;2023-03-16T01:46:28;23.73;;;11.23;;
28009;SDS011;15334;49.494;8.410;2023-03-16T01:49:23;26.08;;;11.48;;
28009;SDS011;15334;49.494;8.410;2023-03-16T01:52:18;27.33;;;11.75;;
28009;SDS011;15334;49.494;8.410;2023-03-16T01:55:23;20.33;;;11.27;;
28009;SDS011;15334;49.494;8.410;2023-03-16T01:58:30;23.48;;;10.68;;
28009;SDS011;15334;49.494;8.410;2023-03-16T02:01:43;23.60;;;10.43;;
28009;SDS011;15334;49.494;8.410;2023-03-16T02:04:35;24.88;;;10.50;;
28009;SDS011;15334;49.494;8.410;2023-03-16T02:10:51;22.63;;;10.82;;
28009;SDS011;15334;49.494;8.410;2023-03-16T02:13:29;26.20;;;10.82;;
28009;SDS011;15334;49.494;8.410;2023-03-16T02:15:59;24.33;;;11.98;;
28009;SDS011;15334;49.494;8.410;2023-03-16T02:18:27;28.27;;;11.85;;
28009;SDS011;15334;49.494;8.410;2023-03-16T02:20:58;24.08;;;11.23;;
28009;SDS011;15334;49.494;8.410;2023-03-16T02:23:33;27.23;;;11.45;;
28009;SDS011;15334;49.494;8.410;2023-03-16T02:26:02;25.55;;;11.10;;
28009;SDS011;15334;49.494;8.410;2023-03-16T02:28:39;22.67;;;11.25;;
28009;SDS011;15334;49.494;8.410;2023-03-16T02:31:15;25.85;;;10.70;;
28009;SDS011;15334;49.494;8.410;2023-03-16T02:33:45;21.33;;;9.93;;
28009;SDS011;15334;49.494;8.410;2023-03-16T02:36:17;24.23;;;10.02;;
28009;SDS011;15334;49.494;8.410;2023-03-16T02:38:46;21.13;;;11.18;;
28009;SDS011;15334;49.494;8.410;2023-03-16T02:41:15;23.13;;;11.75;;
28009;SDS011;15334;49.494;8.410;2023-03-16T02:43:45;21.42;;;10.85;;
28009;SDS011;15334;49.494;8.410;2023-03-16T02:46:24;22.90;;;10.60;;
28009;SDS011;15334;49.494;8.410;2023-03-16T02:48:57;26.95;;;11.93;;
28009;SDS011;15334;49.494;8.410;2023-03-16T02:51:29;28.25;;;11.18;;
28009;SDS011;15334;49.494;8.410;2023-03-16T02:53:59;28.00;;;12.73;;
28009;SDS011;15334;49.494;8.410;2023-03-16T02:56:28;24.42;;;11.45;;
28009;SDS011;15334;49.494;8.410;2023-03-16T02:58:59;21.02;;;10.70;;
28009;SDS011;15334;49.494;8.410;2023-03-16T03:01:32;22.75;;;10.32;;
28009;SDS011;15334;49.494;8.410;2023-03-16T03:04:01;19.25;;;10.50;;
28009;SDS011;15334;49.494;8.410;2023-03-16T03:06:30;22.08;;;10.60;;
28009;SDS011;15334;49.494;8.410;2023-03-16T03:08:58;25.60;;;11.35;;
28009;SDS011;15334;49.494;8.410;2023-03-16T03:11:28;24.75;;;10.93;;
28009;SDS011;15334;49.494;8.410;2023-03-16T03:13:56;25.30;;;11.23;;
28009;SDS011;15334;49.494;8.410;2023-03-16T03:16:24;23.23;;;11.45;;
28009;SDS011;15334;49.494;8.410;2023-03-16T03:18:54;22.48;;;11.60;;
28009;SDS011;15334;49.494;8.410;2023-03-16T03:21:22;24.58;;;11.82;;
28009;SDS011;15334;49.494;8.410;2023-03-16T03:23:50;22.52;;;11.20;;
28009;SDS011;15334;49.494;8.410;2023-03-16T03:26:19;24.08;;;11.20;;
28009;SDS011;15334;49.494;8.410;2023-03-16T03:28:47;25.20;;;11.50;;
28009;SDS011;15334;49.494;8.410;2023-03-16T03:31:15;18.58;;;10.27;;
28009;SDS011;15334;49.494;8.410;2023-03-16T03:33:49;22.20;;;10.80;;
28009;SDS011;15334;49.494;8.410;2023-03-16T03:36:53;24.33;;;10.77;;
28009;SDS011;15334;49.494;8.410;2023-03-16T03:39:46;18.77;;;9.55;;
28009;SDS011;15334;49.494;8.410;2023-03-16T03:42:28;24.17;;;10.35;;
28009;SDS011;15334;49.494;8.410;2023-03-16T03:45:37;18.50;;;9.50;;
28009;SDS011;15334;49.494;8.410;2023-03-16T03:48:28;20.60;;;11.02;;
28009;SDS011;15334;49.494;8.410;2023-03-16T03:51:27;25.05;;;10.98;;
28009;SDS011;15334;49.494;8.410;2023-03-16T03:54:07;19.88;;;10.65;;
28009;SDS011;15334;49.494;8.410;2023-03-16T03:56:59;22.52;;;10.35;;
28009;SDS011;15334;49.494;8.410;2023-03-16T03:59:56;23.55;;;11.02;;
28009;SDS011;15334;49.494;8.410;2023-03-16T04:02:48;28.00;;;12.52;;
28009;SDS011;15334;49.494;8.410;2023-03-16T04:05:43;25.92;;;11.50;;
28009;SDS011;15334;49.494;8.410;2023-03-16T04:09:00;22.75;;;10.32;;
28009;SDS011;15334;49.494;8.410;2023-03-16T04:12:09;26.67;;;10.77;;
28009;SDS011;15334;49.494;8.410;2023-03-16T04:14:48;22.60;;;11.23;;
28009;SDS011;15334;49.494;8.410;2023-03-16T04:17:34;22.60;;;11.07;;
28009;SDS011;15334;49.494;8.410;2023-03-16T04:20:34;23.50;;;10.00;;
28009;SDS011;15334;49.494;8.410;2023-03-16T04:23:23;22.75;;;10.60;;
28009;SDS011;15334;49.494;8.410;2023-03-16T04:26:07;23.60;;;9.88;;
28009;SDS011;15334;49.494;8.410;2023-03-16T04:29:33;27.58;;;10.73;;
28009;SDS011;15334;49.494;8.410;2023-03-16T04:32:34;25.75;;;10.77;;
28009;SDS011;15334;49.494;8.410;2023-03-16T04:35:23;22.60;;;10.98;;
28009;SDS011;15334;49.494;8.410;2023-03-16T04:38:11;21.40;;;11.13;;
28009;SDS011;15334;49.494;8.410;2023-03-16T04:40:51;25.60;;;11.77;;
28009;SDS011;15334;49.494;8.410;2023-03-16T04:43:42;25.50;;;11.25;;
28009;SDS011;15334;49.494;8.410;2023-03-16T04:46:42;22.05;;;10.57;;
28009;SDS011;15334;49.494;8.410;2023-03-16T04:49:17;20.70;;;10.88;;
28009;SDS011;15334;49.494;8.410;2023-03-16T04:54:59;22.33;;;11.43;;
28009;SDS011;15334;49.494;8.410;2023-03-16T04:57:59;21.38;;;10.98;;
28009;SDS011;15334;49.494;8.410;2023-03-16T05:00:47;27.65;;;10.60;;
28009;SDS011;15334;49.494;8.410;2023-03-16T05:03:29;24.42;;;12.32;;
28009;SDS011;15334;49.494;8.410;2023-03-16T05:06:32;26.17;;;11.50;;
28009;SDS011;15334;49.494;8.410;2023-03-16T05:09:36;24.60;;;11.45;;
28009;SDS011;15334;49.494;8.410;2023-03-16T05:12:35;25.25;;;11.27;;
28009;SDS011;15334;49.494;8.410;2023-03-16T05:15:34;22.85;;;12.48;;
28009;SDS011;15334;49.494;8.410;2023-03-16T05:18:32;24.60;;;12.65;;
28009;SDS011;15334;49.494;8.410;2023-03-16T05:24:58;23.08;;;11.45;;
28009;SDS011;15334;49.494;8.410;2023-03-16T05:27:54;22.35;;;10.60;;
28009;SDS011;15334;49.494;8.410;2023-03-16T05:30:57;26.02;;;11.98;;
28009;SDS011;15334;49.494;8.410;2023-03-16T05:33:54;34.13;;;13.10;;
28009;SDS011;15334;49.494;8.410;2023-03-16T05:36:40;25.17;;;11.88;;
28009;SDS011;15334;49.494;8.410;2023-03-16T05:39:22;22.30;;;11.88;;
28009;SDS011;15334;49.494;8.410;2023-03-16T05:42:00;25.80;;;12.20;;
28009;SDS011;15334;49.494;8.410;2023-03-16T05:44:48;24.95;;;11.57;;
28009;SDS011;15334;49.494;8.410;2023-03-16T05:47:30;27.65;;;11.90;;
28009;SDS011;15334;49.494;8.410;2023-03-16T05:50:33;30.13;;;13.10;;
28009;SDS011;15334;49.494;8.410;2023-03-16T05:53:04;27.50;;;13.75;;
28009;SDS011;15334;49.494;8.410;2023-03-16T05:55:37;27.55;;;12.55;;
28009;SDS011;15334;49.494;8.410;2023-03-16T05:58:30;25.58;;;12.52;;
28009;SDS011;15334;49.494;8.410;2023-03-16T06:01:35;26.35;;;12.73;;
28009;SDS011;15334;49.494;8.410;2023-03-16T06:04:27;27.10;;;13.65;;
28009;SDS011;15334;49.494;8.410;2023-03-16T06:07:19;32.45;;;12.23;;
28009;SDS011;15334;49.494;8.410;2023-03-16T06:14:09;32.90;;;14.68;;
28009;SDS011;15334;49.494;8.410;2023-03-16T06:17:20;29.20;;;11.85;;
28009;SDS011;15334;49.494;8.410;2023-03-16T06:20:17;28.25;;;12.95;;
28009;SDS011;15334;49.494;8.410;2023-03-16T06:23:09;30.80;;;14.52;;
28009;SDS011;15334;49.494;8.410;2023-03-16T06:28:47;24.65;;;11.77;;
28009;SDS011;15334;49.494;8.410;2023-03-16T06:34:29;23.00;;;11.65;;
28009;SDS011;15334;49.494;8.410;2023-03-16T06:37:14;26.27;;;12.07;;
28009;SDS011;15334;49.494;8.410;2023-03-16T06:43:45;21.70;;;11.48;;
28009;SDS011;15334;49.494;8.410;2023-03-16T06:49:38;23.95;;;11.50;;
28009;SDS011;15334;49.494;8.410;2023-03-16T06:52:32;31.15;;;13.07;;
28009;SDS011;15334;49.494;8.410;2023-03-16T06:55:45;26.47;;;13.23;;
28009;SDS011;15334;49.494;8.410;2023-03-16T06:58:54;28.52;;;13.32;;
28009;SDS011;15334;49.494;8.410;2023-03-16T07:01:51;28.65;;;14.10;;
28009;SDS011;15334;49.494;8.410;2023-03-16T07:05:07;32.05;;;13.88;;
28009;SDS011;15334;49.494;8.410;2023-03-16T07:07:58;36.72;;;15.88;;
28009;SDS011;15334;49.494;8.410;2023-03-16T07:11:04;35.85;;;16.02;;
28009;SDS011;15334;49.494;8.410;2023-03-16T07:13:39;33.10;;;15.80;;
28009;SDS011;15334;49.494;8.410;2023-03-16T07:16:52;31.88;;;15.07;;
28009;SDS011;15334;49.494;8.410;2023-03-16T07:19:28;27.92;;;13.75;;
28009;SDS011;15334;49.494;8.410;2023-03-16T07:22:06;28.38;;;14.15;;
28009;SDS011;15334;49.494;8.410;2023-03-16T07:24:45;29.42;;;14.40;;
28009;SDS011;15334;49.494;8.410;2023-03-16T07:27:24;31.63;;;15.35;;
28009;SDS011;15334;49.494;8.410;2023-03-16T07:29:59;31.23;;;14.55;;
28009;SDS011;15334;49.494;8.410;2023-03-16T07:36:20;30.98;;;13.85;;
28009;SDS011;15334;49.494;8.410;2023-03-16T07:40:48;32.47;;;14.52;;
28009;SDS011;15334;49.494;8.410;2023-03-16T07:42:17;32.80;;;14.13;;
28009;SDS011;15334;49.494;8.410;2023-03-16T07:45:02;28.35;;;14.05;;
28009;SDS011;15334;49.494;8.410;2023-03-16T07:47:42;33.20;;;13.63;;
28009;SDS011;15334;49.494;8.410;2023-03-16T07:56:37;27.95;;;12.98;;
28009;SDS011;15334;49.494;8.410;2023-03-16T07:59:14;25.35;;;12.80;;
28009;SDS011;15334;49.494;8.410;2023-03-16T08:02:31;31.48;;;12.02;;
28009;SDS011;15334;49.494;8.410;2023-03-16T08:05:25;22.70;;;11.82;;
28009;SDS011;15334;49.494;8.410;2023-03-16T08:09:12;26.50;;;13.10;;
28009;SDS011;15334;49.494;8.410;2023-03-16T08:11:44;30.40;;;14.23;;
28009;SDS011;15334;49.494;8.410;2023-03-16T08:14:14;27.08;;;12.50;;
28009;SDS011;15334;49.494;8.410;2023-03-16T08:16:42;21.83;;;11.05;;
28009;SDS011;15334;49.494;8.410;2023-03-16T08:19:11;28.00;;;13.60;;
28009;SDS011;15334;49.494;8.410;2023-03-16T08:21:39;25.95;;;12.57;;
28009;SDS011;15334;49.494;8.410;2023-03-16T08:24:27;22.50;;;12.38;;
28009;SDS011;15334;49.494;8.410;2023-03-16T08:26:56;26.45;;;10.93;;
28009;SDS011;15334;49.494;8.410;2023-03-16T08:29:25;22.85;;;11.02;;
28009;SDS011;15334;49.494;8.410;2023-03-16T08:31:54;14.77;;;7.65;;
28009;SDS011;15334;49.494;8.410;2023-03-16T08:34:23;14.10;;;7.13;;
28009;SDS011;15334;49.494;8.410;2023-03-16T08:36:52;14.25;;;7.10;;
28009;SDS011;15334;49.494;8.410;2023-03-16T08:39:22;13.52;;;7.03;;
28009;SDS011;15334;49.494;8.410;2023-03-16T08:41:55;13.85;;;7.50;;
28009;SDS011;15334;49.494;8.410;2023-03-16T08:44:23;11.07;;;6.53;;
28009;SDS011;15334;49.494;8.410;2023-03-16T08:46:52;14.25;;;7.40;;
28009;SDS011;15334;49.494;8.410;2023-03-16T08:49:21;14.18;;;6.78;;
28009;SDS011;15334;49.494;8.410;2023-03-16T08:51:49;12.32;;;6.18;;
28009;SDS011;15334;49.494;8.410;2023-03-16T08:54:17;12.15;;;6.88;;
28009;SDS011;15334;49.494;8.410;2023-03-16T08:56:45;13.63;;;6.68;;
28009;SDS011;15334;49.494;8.410;2023-03-16T08:59:15;12.57;;;5.85;;
28009;SDS011;15334;49.494;8.410;2023-03-16T09:01:56;11.98;;;6.50;;
28009;SDS011;15334;49.494;8.410;2023-03-16T09:05:22;10.18;;;5.97;;
28009;SDS011;15334;49.494;8.410;2023-03-16T09:08:45;16.15;;;6.43;;
28009;SDS011;15334;49.494;8.410;2023-03-16T09:11:50;13.57;;;6.03;;
28009;SDS011;15334;49.494;8.410;2023-03-16T09:23:40;13.60;;;5.65;;
28009;SDS011;15334;49.494;8.410;2023-03-16T09:27:30;9.10;;;4.85;;
28009;SDS011;15334;49.494;8.410;2023-03-16T09:38:04;10.93;;;5.50;;
28009;SDS011;15334;49.494;8.410;2023-03-16T09:40:35;10.30;;;4.93;;
28009;SDS011;15334;49.494;8.410;2023-03-16T09:43:15;9.13;;;5.00;;
28009;SDS011;15334;49.494;8.410;2023-03-16T09:45:58;12.85;;;6.82;;
28009;SDS011;15334;49.494;8.410;2023-03-16T09:48:33;8.35;;;4.35;;
28009;SDS011;15334;49.494;8.410;2023-03-16T09:51:06;11.32;;;5.38;;
28009;SDS011;15334;49.494;8.410;2023-03-16T09:53:40;8.18;;;4.72;;
28009;SDS011;15334;49.494;8.410;2023-03-16T09:56:11;11.77;;;5.30;;
28009;SDS011;15334;49.494;8.410;2023-03-16T09:59:19;10.27;;;5.45;;
28009;SDS011;15334;49.494;8.410;2023-03-16T10:02:14;9.32;;;4.88;;
28009;SDS011;15334;49.494;8.410;2023-03-16T10:05:23;10.07;;;4.75;;
28009;SDS011;15334;49.494;8.410;2023-03-16T10:08:18;8.68;;;4.85;;
28009;SDS011;15334;49.494;8.410;2023-03-16T10:11:01;10.85;;;4.88;;
28009;SDS011;15334;49.494;8.410;2023-03-16T10:13:55;11.35;;;5.43;;
28009;SDS011;15334;49.494;8.410;2023-03-16T10:16:47;11.10;;;5.30;;
28009;SDS011;15334;49.494;8.410;2023-03-16T10:19:19;9.98;;;4.75;;
28009;SDS011;15334;49.494;8.410;2023-03-16T10:21:56;9.85;;;5.10;;
28009;SDS011;15334;49.494;8.410;2023-03-16T10:24:35;9.90;;;5.28;;
28009;SDS011;15334;49.494;8.410;2023-03-16T10:27:12;7.80;;;5.40;;
28009;SDS011;15334;49.494;8.410;2023-03-16T10:29:46;9.77;;;4.57;;
28009;SDS011;15334;49.494;8.410;2023-03-16T10:32:16;11.02;;;4.60;;
28009;SDS011;15334;49.494;8.410;2023-03-16T10:34:47;8.60;;;4.72;;
28009;SDS011;15334;49.494;8.410;2023-03-16T10:37:22;8.15;;;5.30;;
28009;SDS011;15334;49.494;8.410;2023-03-16T10:39:53;13.35;;;5.20;;
28009;SDS011;15334;49.494;8.410;2023-03-16T10:42:21;10.45;;;4.78;;
28009;SDS011;15334;49.494;8.410;2023-03-16T10:44:55;10.57;;;4.78;;
28009;SDS011;15334;49.494;8.410;2023-03-16T10:47:27;12.00;;;5.43;;
28009;SDS011;15334;49.494;8.410;2023-03-16T10:49:58;8.57;;;4.22;;
28009;SDS011;15334;49.494;8.410;2023-03-16T10:52:37;7.68;;;3.50;;
28009;SDS011;15334;49.494;8.410;2023-03-16T10:55:10;7.38;;;4.28;;
28009;SDS011;15334;49.494;8.410;2023-03-16T10:57:46;12.13;;;4.32;;
28009;SDS011;15334;49.494;8.410;2023-03-16T11:00:18;8.18;;;4.75;;
28009;SDS011;15334;49.494;8.410;2023-03-16T11:02:48;9.00;;;4.40;;
28009;SDS011;15334;49.494;8.410;2023-03-16T11:05:24;8.63;;;4.45;;
28009;SDS011;15334;49.494;8.410;2023-03-16T11:08:00;8.82;;;4.32;;
28009;SDS011;15334;49.494;8.410;2023-03-16T11:10:37;10.32;;;3.65;;
28009;SDS011;15334;49.494;8.410;2023-03-16T11:13:21;6.53;;;3.42;;
28009;SDS011;15334;49.494;8.410;2023-03-16T11:15:56;8.85;;;4.45;;
28009;SDS011;15334;49.494;8.410;2023-03-16T11:18:32;7.78;;;4.03;;
28009;SDS011;15334;49.494;8.410;2023-03-16T11:21:11;9.93;;;3.90;;
28009;SDS011;15334;49.494;8.410;2023-03-16T11:23:47;7.25;;;3.83;;
28009;SDS011;15334;49.494;8.410;2023-03-16T11:26:59;9.40;;;4.28;;
28009;SDS011;15334;49.494;8.410;2023-03-16T11:30:15;9.15;;;3.92;;
28009;SDS011;15334;49.494;8.410;2023-03-16T11:36:46;11.02;;;3.95;;
28009;SDS011;15334;49.494;8.410;2023-03-16T11:39:28;6.65;;;3.70;;
28009;SDS011;15334;49.494;8.410;2023-03-16T11:45:07;7.55;;;3.72;;
28009;SDS011;15334;49.494;8.410;2023-03-16T11:47:49;7.15;;;3.47;;
28009;SDS011;15334;49.494;8.410;2023-03-16T11:50:43;6.47;;;3.72;;
28009;SDS011;15334;49.494;8.410;2023-03-16T11:53:43;5.95;;;3.33;;
28009;SDS011;15334;49.494;8.410;2023-03-16T11:56:19;6.18;;;3.35;;
28009;SDS011;15334;49.494;8.410;2023-03-16T11:59:06;6.43;;;3.03;;
28009;SDS011;15334;49.494;8.410;2023-03-16T12:01:53;7.55;;;3.95;;
28009;SDS011;15334;49.494;8.410;2023-03-16T12:04:30;6.38;;;3.20;;
28009;SDS011;15334;49.494;8.410;2023-03-16T12:07:12;6.05;;;3.30;;
28009;SDS011;15334;49.494;8.410;2023-03-16T12:09:54;7.35;;;3.40;;
28009;SDS011;15334;49.494;8.410;2023-03-16T12:12:43;7.82;;;3.42;;
28009;SDS011;15334;49.494;8.410;2023-03-16T12:15:25;6.68;;;2.80;;
28009;SDS011;15334;49.494;8.410;2023-03-16T12:17:59;6.35;;;3.25;;
28009;SDS011;15334;49.494;8.410;2023-03-16T12:20:33;6.28;;;2.90;;
28009;SDS011;15334;49.494;8.410;2023-03-16T12:23:09;6.38;;;3.10;;
28009;SDS011;15334;49.494;8.410;2023-03-16T12:25:42;5.90;;;3.08;;
28009;SDS011;15334;49.494;8.410;2023-03-16T12:28:17;5.82;;;2.90;;
28009;SDS011;15334;49.494;8.410;2023-03-16T12:30:59;6.80;;;3.50;;
28009;SDS011;15334;49.494;8.410;2023-03-16T12:33:41;7.85;;;3.63;;
28009;SDS011;15334;49.494;8.410;2023-03-16T12:36:31;6.95;;;3.83;;
28009;SDS011;15334;49.494;8.410;2023-03-16T12:39:19;6.43;;;3.50;;
28009;SDS011;15334;49.494;8.410;2023-03-16T12:42:02;7.13;;;3.60;;
28009;SDS011;15334;49.494;8.410;2023-03-16T12:44:42;7.78;;;3.75;;
28009;SDS011;15334;49.494;8.410;2023-03-16T12:47:17;6.13;;;3.72;;
28009;SDS011;15334;49.494;8.410;2023-03-16T12:49:52;6.68;;;3.55;;
28009;SDS011;15334;49.494;8.410;2023-03-16T13:00:02;6.00;;;3.33;;
28009;SDS011;15334;49.494;8.410;2023-03-16T13:01:55;5.40;;;3.00;;
28009;SDS011;15334;49.494;8.410;2023-03-16T13:09:39;6.10;;;3.25;;
28009;SDS011;15334;49.494;8.410;2023-03-16T13:21:43;6.00;;;3.67;;
28009;SDS011;15334;49.494;8.410;2023-03-16T13:28:07;6.97;;;2.97;;
28009;SDS011;15334;49.494;8.410;2023-03-16T13:30:42;8.77;;;3.67;;
28009;SDS011;15334;49.494;8.410;2023-03-16T13:33:16;7.50;;;3.53;;
28009;SDS011;15334;49.494;8.410;2023-03-16T13:35:47;7.00;;;3.47;;
28009;SDS011;15334;49.494;8.410;2023-03-16T13:38:21;7.50;;;3.63;;
28009;SDS011;15334;49.494;8.410;2023-03-16T13:40:56;8.00;;;3.70;;
28009;SDS011;15334;49.494;8.410;2023-03-16T13:43:30;8.98;;;3.38;;
28009;SDS011;15334;49.494;8.410;2023-03-16T13:46:01;6.85;;;3.33;;
28009;SDS011;15334;49.494;8.410;2023-03-16T13:48:40;7.22;;;2.97;;
28009;SDS011;15334;49.494;8.410;2023-03-16T13:51:10;5.32;;;3.00;;
28009;SDS011;15334;49.494;8.410;2023-03-16T13:53:41;8.35;;;3.58;;
28009;SDS011;15334;49.494;8.410;2023-03-16T13:56:12;6.65;;;3.15;;
28009;SDS011;15334;49.494;8.410;2023-03-16T13:58:44;5.38;;;2.78;;
28009;SDS011;15334;49.494;8.410;2023-03-16T14:01:16;6.97;;;2.85;;
28009;SDS011;15334;49.494;8.410;2023-03-16T14:03:54;5.00;;;2.80;;
28009;SDS011;15334;49.494;8.410;2023-03-16T14:06:25;6.45;;;2.83;;
28009;SDS011;15334;49.494;8.410;2023-03-16T14:08:55;5.57;;;3.28;;
28009;SDS011;15334;49.494;8.410;2023-03-16T14:13:58;7.45;;;2.63;;
28009;SDS011;15334;49.494;8.410;2023-03-16T14:16:28;6.88;;;2.88;;
28009;SDS011;15334;49.494;8.410;2023-03-16T14:18:59;5.63;;;2.83;;
28009;SDS011;15334;49.494;8.410;2023-03-16T14:21:29;10.75;;;2.80;;
28009;SDS011;15334;49.494;8.410;2023-03-16T14:24:01;8.73;;;3.28;;
28009;SDS011;15334;49.494;8.410;2023-03-16T14:26:39;4.93;;;2.53;;
28009;SDS011;15334;49.494;8.410;2023-03-16T14:29:15;5.25;;;2.45;;
28009;SDS011;15334;49.494;8.410;2023-03-16T14:31:50;7.07;;;2.75;;
28009;SDS011;15334;49.494;8.410;2023-03-16T14:34:21;7.05;;;3.60;;
28009;SDS011;15334;49.494;8.410;2023-03-16T14:37:04;6.38;;;2.80;;
28009;SDS011;15334;49.494;8.410;2023-03-16T14:39:34;6.03;;;3.10;;
28009;SDS011;15334;49.494;8.410;2023-03-16T14:42:03;6.45;;;2.92;;
28009;SDS011;15334;49.494;8.410;2023-03-16T14:44:34;15.75;;;3.17;;
28009;SDS011;15334;49.494;8.410;2023-03-16T14:47:05;9.63;;;2.47;;
28009;SDS011;15334;49.494;8.410;2023-03-16T14:49:36;4.60;;;2.57;;
28009;SDS011;15334;49.494;8.410;2023-03-16T14:52:11;5.85;;;2.25;;
28009;SDS011;15334;49.494;8.410;2023-03-16T14:54:48;7.38;;;2.42;;
28009;SDS011;15334;49.494;8.410;2023-03-16T14:57:17;6.00;;;2.17;;
28009;SDS011;15334;49.494;8.410;2023-03-16T14:59:48;4.35;;;2.33;;
28009;SDS011;15334;49.494;8.410;2023-03-16T15:02:26;6.22;;;1.83;;
28009;SDS011;15334;49.494;8.410;2023-03-16T15:04:56;5.18;;;2.53;;
28009;SDS011;15334;49.494;8.410;2023-03-16T15:07:27;6.45;;;2.40;;
28009;SDS011;15334;49.494;8.410;2023-03-16T15:09:58;5.75;;;2.33;;
28009;SDS011;15334;49.494;8.410;2023-03-16T15:12:32;5.63;;;2.13;;
28009;SDS011;15334;49.494;8.410;2023-03-16T15:15:04;6.30;;;2.25;;
28009;SDS011;15334;49.494;8.410;2023-03-16T15:17:41;4.90;;;2.17;;
28009;SDS011;15334;49.494;8.410;2023-03-16T15:20:11;4.22;;;2.50;;
28009;SDS011;15334;49.494;8.410;2023-03-16T15:22:41;6.25;;;2.05;;
28009;SDS011;15334;49.494;8.410;2023-03-16T15:25:19;4.38;;;2.00;;
28009;SDS011;15334;49.494;8.410;2023-03-16T15:27:51;3.88;;;1.67;;
28009;SDS011;15334;49.494;8.410;2023-03-16T15:30:22;5.68;;;1.80;;
28009;SDS011;15334;49.494;8.410;2023-03-16T15:32:52;3.83;;;1.88;;
28009;SDS011;15334;49.494;8.410;2023-03-16T15:35:21;7.78;;;2.03;;
28009;SDS011;15334;49.494;8.410;2023-03-16T15:37:49;3.97;;;1.95;;
28009;SDS011;15334;49.494;8.410;2023-03-16T15:40:19;3.38;;;1.73;;
28009;SDS011;15334;49.494;8.410;2023-03-16T15:42:51;4.43;;;1.58;;
28009;SDS011;15334;49.494;8.410;2023-03-16T15:45:21;5.68;;;1.65;;
28009;SDS011;15334;49.494;8.410;2023-03-16T15:47:51;3.72;;;1.73;;
28009;SDS011;15334;49.494;8.410;2023-03-16T15:50:21;2.83;;;1.38;;
28009;SDS011;15334;49.494;8.410;2023-03-16T15:52:51;4.18;;;1.88;;
28009;SDS011;15334;49.494;8.410;2023-03-16T15:55:24;5.18;;;1.88;;
28009;SDS011;15334;49.494;8.410;2023-03-16T15:57:59;5.10;;;1.70;;
28009;SDS011;15334;49.494;8.410;2023-03-16T16:00:30;3.25;;;1.50;;
28009;SDS011;15334;49.494;8.410;2023-03-16T16:03:01;1.88;;;1.10;;
28009;SDS011;15334;49.494;8.410;2023-03-16T16:05:31;4.45;;;1.75;;
28009;SDS011;15334;49.494;8.410;2023-03-16T16:07:59;3.40;;;1.30;;
28009;SDS011;15334;49.494;8.410;2023-03-16T16:10:30;3.50;;;1.48;;
28009;SDS011;15334;49.494;8.410;2023-03-16T16:12:59;4.75;;;1.30;;
28009;SDS011;15334;49.494;8.410;2023-03-16T16:15:28;2.17;;;1.20;;
28009;SDS011;15334;49.494;8.410;2023-03-16T16:18:00;4.68;;;1.70;;
28009;SDS011;15334;49.494;8.410;2023-03-16T16:20:47;2.72;;;1.30;;
28009;SDS011;15334;49.494;8.410;2023-03-16T16:23:16;2.70;;;1.20;;
28009;SDS011;15334;49.494;8.410;2023-03-16T16:25:47;5.38;;;1.58;;
28009;SDS011;15334;49.494;8.410;2023-03-16T16:28:18;3.00;;;1.35;;
28009;SDS011;15334;49.494;8.410;2023-03-16T16:30:50;4.35;;;1.40;;
28009;SDS011;15334;49.494;8.410;2023-03-16T16:33:23;3.28;;;1.30;;
28009;SDS011;15334;49.494;8.410;2023-03-16T16:35:52;3.83;;;1.63;;
28009;SDS011;15334;49.494;8.410;2023-03-16T16:38:22;5.07;;;1.30;;
28009;SDS011;15334;49.494;8.410;2023-03-16T16:40:54;2.35;;;1.20;;
28009;SDS011;15334;49.494;8.410;2023-03-16T16:43:28;1.55;;;1.02;;
28009;SDS011;15334;49.494;8.410;2023-03-16T16:46:02;4.20;;;1.90;;
28009;SDS011;15334;49.494;8.410;2023-03-16T16:48:34;2.17;;;1.15;;
28009;SDS011;15334;49.494;8.410;2023-03-16T16:51:04;3.00;;;1.48;;
28009;SDS011;15334;49.494;8.410;2023-03-16T16:53:33;4.32;;;1.45;;
28009;SDS011;15334;49.494;8.410;2023-03-16T16:56:01;4.57;;;1.35;;
28009;SDS011;15334;49.494;8.410;2023-03-16T16:58:35;1.98;;;1.13;;
28009;SDS011;15334;49.494;8.410;2023-03-16T17:01:05;5.28;;;1.67;;
28009;SDS011;15334;49.494;8.410;2023-03-16T17:03:36;4.00;;;1.42;;
28009;SDS011;15334;49.494;8.410;2023-03-16T17:06:05;5.28;;;1.25;;
28009;SDS011;15334;49.494;8.410;2023-03-16T17:08:41;2.92;;;1.60;;
28009;SDS011;15334;49.494;8.410;2023-03-16T17:11:11;3.35;;;1.20;;
28009;SDS011;15334;49.494;8.410;2023-03-16T17:13:43;2.00;;;1.33;;
28009;SDS011;15334;49.494;8.410;2023-03-16T17:16:14;6.18;;;1.60;;
28009;SDS011;15334;49.494;8.410;2023-03-16T17:18:45;5.47;;;2.70;;
28009;SDS011;15334;49.494;8.410;2023-03-16T17:21:15;3.45;;;1.50;;
28009;SDS011;15334;49.494;8.410;2023-03-16T17:23:45;7.15;;;1.27;;
28009;SDS011;15334;49.494;8.410;2023-03-16T17:26:15;2.72;;;1.40;;
28009;SDS011;15334;49.494;8.410;2023-03-16T17:28:45;7.60;;;1.52;;
28009;SDS011;15334;49.494;8.410;2023-03-16T17:33:49;2.22;;;1.10;;